Time;durP1;ratioP1;P1;durP2;ratioP2;P2;SDS_P1;SDS_P2;PMS_P1;PMS_P2;Temp;Humidity;BMP_temperature;BMP_pressure;BME280_temperature;BME280_humidity;BME280_pressure;Samples;Min_cycle;Max_cycle;Signal;HPM_P1;HPM_P2
2022/07/20 00:01:06;;;;;;;3.67;2.35;;;;;;;17.72;48.67;95417.78;5114867;27;20027;-72
2022/07/20 00:03:32;;;;;;;2.50;1.90;;;;;;;17.69;48.78;95409.38;5121861;27;20381;-72
2022/07/20 00:05:57;;;;;;;2.65;1.75;;;;;;;17.75;49.23;95417.47;5098055;27;20050;-73
2022/07/20 00:11:23;;;;;;;3.05;1.92;;;;;;;17.61;49.10;95415.44;5108490;27;20084;-73
2022/07/20 00:13:52;;;;;;;3.17;1.70;;;;;;;17.48;49.50;95412.38;5118395;27;20054;-73
2022/07/20 00:16:18;;;;;;;5.82;2.00;;;;;;;17.31;50.05;95409.66;5108312;28;20035;-73
2022/07/20 00:18:44;;;;;;;2.45;1.92;;;;;;;17.24;50.39;95402.53;5112577;27;20412;-72
2022/07/20 00:21:09;;;;;;;3.95;2.00;;;;;;;17.05;51.06;95406.16;5123645;27;20038;-73
2022/07/20 00:23:35;;;;;;;3.28;2.13;;;;;;;17.05;51.19;95393.03;5111391;28;20402;-72
2022/07/20 00:26:00;;;;;;;5.25;2.15;;;;;;;17.02;51.70;95401.22;5114083;27;20028;-73
2022/07/20 00:28:26;;;;;;;3.75;2.03;;;;;;;17.03;51.64;95389.78;5131939;27;20031;-73
2022/07/20 00:30:51;;;;;;;6.13;2.20;;;;;;;17.05;51.98;95396.50;5097173;28;20039;-73
2022/07/20 00:33:16;;;;;;;3.97;2.28;;;;;;;17.02;51.97;95385.47;5128460;27;20035;-73
2022/07/20 00:35:42;;;;;;;4.95;2.50;;;;;;;17.01;51.97;95396.97;5132628;27;20515;-73
2022/07/20 00:38:07;;;;;;;5.15;2.25;;;;;;;16.87;52.01;95378.16;5121182;27;20396;-73
2022/07/20 00:40:33;;;;;;;2.97;2.20;;;;;;;16.80;52.36;95395.50;5119322;27;20047;-73
2022/07/20 00:42:58;;;;;;;4.00;2.03;;;;;;;16.82;52.29;95390.09;5118045;27;20028;-73
2022/07/20 00:45:24;;;;;;;3.20;2.25;;;;;;;16.85;52.24;95397.66;5078184;28;20028;-73
2022/07/20 00:47:51;;;;;;;3.45;2.40;;;;;;;16.86;52.40;95402.75;5095358;28;20027;-73
2022/07/20 00:50:17;;;;;;;2.80;1.92;;;;;;;16.87;52.30;95393.91;5113206;27;20031;-73
2022/07/20 00:52:42;;;;;;;2.60;2.08;;;;;;;16.93;52.19;95402.97;5095174;28;20055;-73
2022/07/20 00:55:08;;;;;;;2.72;2.13;;;;;;;16.92;52.22;95407.38;5078302;28;20035;-73
2022/07/20 00:57:33;;;;;;;4.07;2.50;;;;;;;17.02;51.78;95403.84;5122081;27;20507;-73
2022/07/20 00:59:59;;;;;;;3.28;1.98;;;;;;;17.02;51.93;95409.09;5111881;27;20413;-72
2022/07/20 01:02:25;;;;;;;3.50;2.15;;;;;;;16.96;52.02;95402.66;5106502;27;20024;-72
2022/07/20 01:04:50;;;;;;;2.95;1.90;;;;;;;17.05;51.98;95408.78;5097964;27;20034;-73
2022/07/20 01:07:15;;;;;;;2.78;2.10;;;;;;;17.04;52.05;95407.16;5107585;28;20028;-73
2022/07/20 01:09:41;;;;;;;4.38;2.03;;;;;;;17.06;51.87;95406.03;5101861;28;20428;-72
2022/07/20 01:12:09;;;;;;;3.58;1.98;;;;;;;17.04;51.69;95394.84;5078562;27;20420;-73
2022/07/20 01:14:34;;;;;;;4.97;2.00;;;;;;;17.10;51.88;95404.72;5111673;27;20032;-73
2022/07/20 01:17:00;;;;;;;2.58;1.90;;;;;;;17.12;51.63;95394.91;5095088;28;20069;-73
2022/07/20 01:19:25;;;;;;;2.63;1.75;;;;;;;17.14;51.50;95390.34;5095692;27;20038;-73
2022/07/20 01:21:51;;;;;;;5.63;1.98;;;;;;;17.13;51.50;95399.19;5094516;28;20024;-73
2022/07/20 01:24:16;;;;;;;5.70;1.80;;;;;;;17.20;51.24;95394.16;5094481;28;20023;-72
2022/07/20 01:26:43;;;;;;;2.70;2.00;;;;;;;17.11;51.51;95398.53;5124992;27;20038;-73
2022/07/20 01:29:08;;;;;;;3.83;2.00;;;;;;;17.13;51.66;95398.34;5128926;27;20492;-73
2022/07/20 01:31:34;;;;;;;4.70;2.17;;;;;;;17.09;51.87;95402.28;5112817;27;20041;-73
2022/07/20 01:33:59;;;;;;;2.63;2.00;;;;;;;16.95;52.31;95399.22;5131497;27;20034;-73
2022/07/20 01:36:25;;;;;;;2.75;2.20;;;;;;;16.87;52.40;95391.28;5093559;28;20413;-73
2022/07/20 01:38:52;;;;;;;3.17;1.85;;;;;;;16.78;52.65;95394.00;5112320;27;20043;-73
2022/07/20 01:41:17;;;;;;;3.20;2.10;;;;;;;16.84;52.67;95388.97;5123789;27;20027;-73
2022/07/20 01:43:42;;;;;;;3.40;2.40;;;;;;;16.68;52.95;95394.03;5078140;28;20026;-73
2022/07/20 01:46:08;;;;;;;2.85;1.88;;;;;;;16.67;52.93;95390.59;5111212;27;20035;-73
2022/07/20 01:48:33;;;;;;;2.67;2.00;;;;;;;16.50;53.03;95366.00;5111069;28;20027;-74
2022/07/20 01:50:59;;;;;;;3.67;2.47;;;;;;;16.52;53.31;95384.22;5096221;28;20019;-72
2022/07/20 01:53:24;;;;;;;3.45;2.13;;;;;;;16.45;53.31;95386.59;5096270;27;20032;-72
2022/07/20 01:55:53;;;;;;;2.78;1.80;;;;;;;16.43;53.50;95380.69;5094442;28;20108;-72
2022/07/20 01:58:18;;;;;;;4.68;2.20;;;;;;;16.45;53.33;95383.16;5120078;27;20059;-72
2022/07/20 02:00:44;;;;;;;3.65;1.92;;;;;;;16.46;53.27;95390.88;5128018;27;20028;-72
2022/07/20 02:03:09;;;;;;;3.25;2.15;;;;;;;16.49;53.24;95393.22;5114185;27;20057;-73
2022/07/20 02:05:35;;;;;;;2.60;1.83;;;;;;;16.42;53.21;95386.91;5130673;27;20077;-73
2022/07/20 02:08:00;;;;;;;4.47;1.90;;;;;;;16.53;53.02;95396.38;5113835;27;20484;-73
2022/07/20 02:10:26;;;;;;;6.22;2.22;;;;;;;16.44;53.18;95395.47;5131011;27;20504;-73
2022/07/20 02:12:52;;;;;;;2.55;2.13;;;;;;;16.46;53.19;95403.97;5093175;28;20034;-73
2022/07/20 02:18:08;;;;;;;4.97;2.00;;;;;;;16.48;52.89;95388.94;5131992;27;20069;-72
2022/07/20 02:20:34;;;;;;;5.00;2.00;;;;;;;16.52;52.72;95390.28;5112484;27;20047;-73
2022/07/20 02:22:59;;;;;;;3.08;1.88;;;;;;;16.62;52.55;95402.50;5113110;27;20055;-73
2022/07/20 02:25:25;;;;;;;2.80;2.03;;;;;;;16.59;52.75;95400.19;5112080;27;20050;-73
2022/07/20 02:27:50;;;;;;;3.35;2.20;;;;;;;16.56;52.73;95401.31;5076402;28;20122;-72
2022/07/20 02:30:16;;;;;;;3.17;2.10;;;;;;;16.54;52.81;95398.81;5107204;28;20035;-73
2022/07/20 02:32:41;;;;;;;2.95;1.90;;;;;;;16.54;52.86;95398.81;5122563;27;20545;-73
2022/07/20 02:35:07;;;;;;;2.85;2.00;;;;;;;16.45;53.08;95391.84;5130904;27;20500;-73
2022/07/20 02:37:32;;;;;;;2.70;1.90;;;;;;;16.48;53.13;95401.22;5113584;27;20042;-73
2022/07/20 02:39:58;;;;;;;2.63;1.92;;;;;;;16.48;53.15;95402.03;5124123;27;20028;-73
2022/07/20 02:42:23;;;;;;;3.35;2.10;;;;;;;16.54;52.84;95398.00;5111174;27;20394;-73
2022/07/20 02:44:49;;;;;;;3.13;2.10;;;;;;;16.47;52.95;95386.47;5105395;27;20096;-73
2022/07/20 02:47:14;;;;;;;3.53;1.90;;;;;;;16.41;53.47;95398.38;5109740;28;20023;-73
2022/07/20 02:49:39;;;;;;;4.72;1.85;;;;;;;16.44;53.35;95398.09;5111474;28;20031;-73
2022/07/20 02:52:05;;;;;;;3.05;1.90;;;;;;;16.40;53.36;95396.72;5112274;28;20031;-73
2022/07/20 02:54:30;;;;;;;2.80;2.10;;;;;;;16.43;53.54;95406.09;5110155;28;20031;-73
2022/07/20 02:56:56;;;;;;;4.10;1.92;;;;;;;16.34;53.63;95405.19;5117866;28;20030;-73
2022/07/20 02:59:21;;;;;;;4.18;1.92;;;;;;;16.37;53.61;95409.31;5131130;27;20539;-73
2022/07/20 03:01:48;;;;;;;3.60;1.95;;;;;;;16.25;53.67;95419.19;5105184;28;20500;-73
2022/07/20 03:04:13;;;;;;;3.80;1.83;;;;;;;16.18;53.77;95412.88;5129127;28;20028;-73
2022/07/20 03:06:39;;;;;;;3.25;2.10;;;;;;;16.03;53.67;95389.78;5100247;28;20035;-73
2022/07/20 03:09:04;;;;;;;3.85;1.80;;;;;;;16.13;53.54;95402.84;5111122;28;20424;-72
2022/07/20 03:11:30;;;;;;;3.75;1.92;;;;;;;16.22;53.56;95409.00;5127582;28;20089;-73
2022/07/20 03:13:55;;;;;;;3.17;1.98;;;;;;;16.18;53.97;95411.06;5107892;28;20027;-72
2022/07/20 03:16:20;;;;;;;3.63;1.85;;;;;;;16.08;53.90;95411.13;5118338;28;20538;-73
2022/07/20 03:18:46;;;;;;;3.42;1.90;;;;;;;16.03;54.19;95415.16;5129953;28;20556;-72
2022/07/20 03:21:11;;;;;;;2.88;1.92;;;;;;;16.04;54.42;95417.63;5127638;28;20076;-72
2022/07/20 03:23:37;;;;;;;2.90;1.90;;;;;;;16.02;54.34;95418.75;5123364;28;20027;-72
2022/07/20 03:26:02;;;;;;;3.03;1.80;;;;;;;16.07;54.14;95424.38;5112509;28;20028;-72
2022/07/20 03:28:28;;;;;;;2.83;2.08;;;;;;;16.12;54.17;95430.00;5095544;28;20027;-72
2022/07/20 03:30:53;;;;;;;3.55;2.60;;;;;;;16.11;54.33;95430.16;5100963;28;20141;-73
2022/07/20 03:33:19;;;;;;;5.57;2.10;;;;;;;16.13;54.85;95436.06;5126015;27;20036;-72
2022/07/20 03:35:44;;;;;;;3.78;2.20;;;;;;;16.15;54.53;95434.94;5093489;28;20027;-72
2022/07/20 03:38:10;;;;;;;2.75;2.00;;;;;;;16.27;54.19;95439.03;5092826;28;20043;-73
2022/07/20 03:40:35;;;;;;;3.67;2.00;;;;;;;16.34;53.72;95433.19;5120288;27;20023;-73
2022/07/20 03:43:01;;;;;;;3.22;1.90;;;;;;;16.44;53.39;95434.78;5101821;28;20389;-72
2022/07/20 03:45:26;;;;;;;2.72;1.88;;;;;;;16.45;53.33;95438.22;5121993;28;20032;-73
2022/07/20 03:47:52;;;;;;;3.60;1.95;;;;;;;16.48;53.36;95444.00;5119486;27;20035;-72
2022/07/20 03:50:17;;;;;;;3.97;1.88;;;;;;;16.53;52.97;95447.00;5128467;27;20054;-73
2022/07/20 03:52:42;;;;;;;2.38;1.80;;;;;;;16.42;53.20;95431.47;5118708;27;20028;-73
2022/07/20 03:55:08;;;;;;;2.88;2.00;;;;;;;16.35;53.24;95417.31;5117050;27;20080;-72
2022/07/20 03:57:33;;;;;;;3.65;2.03;;;;;;;16.46;53.50;95443.31;5104470;28;20096;-72
2022/07/20 03:59:59;;;;;;;3.97;2.00;;;;;;;16.52;53.49;95442.75;5096197;28;20063;-73
2022/07/20 04:02:24;;;;;;;3.47;1.80;;;;;;;16.54;53.40;95448.66;5131120;27;20039;-73
2022/07/20 04:04:50;;;;;;;3.55;2.30;;;;;;;16.80;52.93;95445.34;5118488;27;20041;-73
2022/07/20 04:07:16;;;;;;;2.60;1.80;;;;;;;17.12;51.91;95439.53;5112993;27;20038;-73
2022/07/20 04:09:44;;;;;;;5.22;2.10;;;;;;;17.31;51.56;95450.84;5097144;27;20042;-72
2022/07/20 04:12:15;;;;;;;3.00;1.90;;;;;;;19.18;46.63;95434.97;5118312;27;20088;-73
2022/07/20 04:14:41;;;;;;;4.30;2.30;;;;;;;22.22;40.00;95432.22;5095392;28;20554;-73
2022/07/20 04:17:06;;;;;;;2.25;1.67;;;;;;;25.33;33.47;95425.84;5098175;28;20081;-73
2022/07/20 04:19:35;;;;;;;3.55;2.00;;;;;;;27.35;30.28;95429.31;5115007;27;20492;-73
2022/07/20 04:22:00;;;;;;;3.30;1.83;;;;;;;28.15;28.71;95436.66;5096214;28;20035;-72
2022/07/20 04:24:26;;;;;;;2.72;1.80;;;;;;;29.68;27.39;95432.81;5112496;28;20028;-73
2022/07/20 04:26:51;;;;;;;3.53;1.67;;;;;;;30.74;25.63;95440.72;5102665;28;20039;-73
2022/07/20 04:29:17;;;;;;;3.38;1.67;;;;;;;31.36;24.95;95440.03;5116298;27;20027;-73
2022/07/20 04:31:42;;;;;;;2.10;1.60;;;;;;;32.18;23.62;95433.28;5131049;27;20535;-73
2022/07/20 04:34:08;;;;;;;4.90;2.10;;;;;;;32.73;22.95;95429.69;5130873;27;20083;-73
2022/07/20 04:36:33;;;;;;;5.25;1.70;;;;;;;33.53;22.30;95432.72;5094838;28;20031;-73
2022/07/20 04:38:58;;;;;;;4.28;2.05;;;;;;;33.77;21.87;95428.59;5097050;27;20036;-73
2022/07/20 04:41:24;;;;;;;3.85;1.90;;;;;;;33.69;21.18;95442.53;5115434;27;20039;-70
2022/07/20 04:43:49;;;;;;;4.65;2.08;;;;;;;34.39;21.26;95437.91;5117226;27;20032;-71
2022/07/20 04:46:15;;;;;;;4.22;2.05;;;;;;;34.98;21.11;95439.50;5096575;27;20477;-71
2022/07/20 04:48:40;;;;;;;4.18;2.20;;;;;;;35.28;20.64;95451.47;5115692;27;20061;-70
2022/07/20 04:51:06;;;;;;;6.00;2.10;;;;;;;35.19;20.30;95447.66;5123823;27;20526;-73
2022/07/20 04:53:31;;;;;;;3.97;2.20;;;;;;;35.08;20.78;95455.75;5095341;28;20036;-71
2022/07/20 04:55:57;;;;;;;8.70;2.15;;;;;;;34.44;20.63;95456.00;5098472;27;20072;-71
2022/07/20 04:58:22;;;;;;;5.90;2.65;;;;;;;31.72;23.97;95446.81;5132076;27;20043;-71
2022/07/20 05:00:47;;;;;;;7.45;2.38;;;;;;;28.88;28.36;95447.28;5132534;27;20468;-71
2022/07/20 05:03:13;;;;;;;5.00;2.65;;;;;;;27.61;30.14;95452.31;5102631;28;20424;-71
2022/07/20 05:05:38;;;;;;;8.40;2.42;;;;;;;26.20;32.47;95462.00;5120830;27;20392;-71
2022/07/20 05:08:04;;;;;;;3.92;1.75;;;;;;;25.68;33.55;95449.56;5126364;27;20092;-71
2022/07/20 05:10:30;;;;;;;10.00;2.50;;;;;;;25.17;34.57;95453.63;5094369;28;20477;-70
2022/07/20 05:12:55;;;;;;;10.88;2.40;;;;;;;24.70;35.68;95450.84;5113238;27;20028;-71
2022/07/20 05:15:23;;;;;;;6.57;2.13;;;;;;;24.25;36.78;95454.91;5094935;28;20573;-71
2022/07/20 05:17:49;;;;;;;5.35;2.60;;;;;;;23.55;38.02;95452.19;5112969;28;20036;-71
2022/07/20 05:20:15;;;;;;;8.77;3.35;;;;;;;23.74;38.07;95464.00;5077966;28;20451;-71
2022/07/20 05:22:40;;;;;;;5.43;2.47;;;;;;;23.88;37.85;95458.78;5113143;28;20073;-71
2022/07/20 05:25:06;;;;;;;8.23;2.33;;;;;;;23.91;37.83;95464.50;5094961;27;20042;-71
2022/07/20 05:27:31;;;;;;;5.75;2.65;;;;;;;23.69;37.70;95466.34;5132060;27;20035;-71
2022/07/20 05:29:57;;;;;;;9.10;2.70;;;;;;;23.40;38.51;95464.69;5114899;27;20035;-71
2022/07/20 05:32:22;;;;;;;5.90;2.80;;;;;;;23.50;38.25;95472.31;5131503;27;20039;-71
2022/07/20 05:34:48;;;;;;;10.73;2.78;;;;;;;23.45;38.40;95467.59;5132066;27;20400;-71
2022/07/20 05:37:16;;;;;;;10.65;2.70;;;;;;;23.36;38.84;95471.38;5131891;27;20035;-71
2022/07/20 05:39:41;;;;;;;5.93;2.80;;;;;;;23.32;39.03;95470.16;5131785;27;20472;-71
2022/07/20 05:42:07;;;;;;;6.40;2.50;;;;;;;23.13;38.60;95477.72;5114776;27;20042;-71
2022/07/20 05:44:32;;;;;;;4.28;2.30;;;;;;;22.78;39.74;95473.22;5113912;27;20405;-71
2022/07/20 05:46:58;;;;;;;7.28;2.30;;;;;;;22.62;40.04;95476.88;5108991;28;20398;-71
2022/07/20 05:49:23;;;;;;;6.90;2.38;;;;;;;22.78;40.52;95474.03;5119272;27;20083;-71
2022/07/20 05:51:48;;;;;;;8.00;2.60;;;;;;;23.00;40.21;95471.44;5132920;27;20024;-71
2022/07/20 05:54:14;;;;;;;5.15;2.97;;;;;;;23.06;40.54;95471.50;5113346;27;20042;-71
2022/07/20 05:56:39;;;;;;;4.10;2.33;;;;;;;23.09;40.05;95465.00;5114529;27;20031;-71
2022/07/20 05:59:05;;;;;;;6.50;2.67;;;;;;;23.06;38.68;95476.00;5128632;27;20058;-71
2022/07/20 06:01:30;;;;;;;6.05;2.30;;;;;;;22.94;39.76;95467.69;5128764;27;20023;-71
2022/07/20 06:03:56;;;;;;;6.20;2.60;;;;;;;22.97;39.38;95468.16;5127636;27;20024;-71
2022/07/20 06:06:21;;;;;;;5.22;2.20;;;;;;;22.97;39.41;95472.63;5131636;27;20039;-71
2022/07/20 06:08:47;;;;;;;6.57;2.33;;;;;;;22.61;38.83;95473.44;5127079;27;20031;-71
2022/07/20 06:11:12;;;;;;;4.05;2.22;;;;;;;22.42;39.63;95469.53;5093851;28;20031;-71
2022/07/20 06:13:37;;;;;;;4.38;2.33;;;;;;;22.65;39.82;95472.06;5122396;27;20032;-71
2022/07/20 06:16:04;;;;;;;7.35;2.10;;;;;;;22.86;39.47;95479.22;5129308;27;20046;-71
2022/07/20 06:18:29;;;;;;;5.15;2.40;;;;;;;23.02;39.21;95474.75;5113988;27;20118;-71
2022/07/20 06:20:55;;;;;;;5.45;2.40;;;;;;;23.04;38.87;95480.66;5132742;27;20102;-71
2022/07/20 06:23:20;;;;;;;6.20;2.28;;;;;;;23.00;38.88;95474.91;5130504;27;20042;-71
2022/07/20 06:25:46;;;;;;;7.82;2.30;;;;;;;22.80;39.25;95481.81;5107670;28;20413;-71
2022/07/20 06:28:12;;;;;;;7.68;2.50;;;;;;;22.73;39.27;95482.56;5091905;27;20043;-71
2022/07/20 06:30:37;;;;;;;6.10;2.50;;;;;;;22.84;39.66;95491.00;5118979;27;20035;-71
2022/07/20 06:33:03;;;;;;;4.20;2.20;;;;;;;22.95;38.65;95475.47;5108664;27;20038;-71
2022/07/20 06:35:28;;;;;;;7.45;2.60;;;;;;;23.14;38.50;95474.03;5117494;27;20118;-71
2022/07/20 06:37:54;;;;;;;5.05;2.22;;;;;;;23.29;37.88;95475.78;5100230;27;20311;-71
2022/07/20 06:40:20;;;;;;;6.82;2.47;;;;;;;23.31;37.79;95463.19;5119509;27;20105;-72
2022/07/20 06:42:45;;;;;;;3.45;2.13;;;;;;;23.51;38.30;95466.00;5110708;28;20465;-72
2022/07/20 06:45:11;;;;;;;5.50;2.20;;;;;;;23.68;38.15;95464.72;5089167;28;20134;-72
2022/07/20 06:47:36;;;;;;;5.18;1.92;;;;;;;23.74;37.11;95464.00;5112428;28;20019;-73
2022/07/20 06:50:04;;;;;;;4.38;2.30;;;;;;;23.81;36.95;95454.22;5107562;28;20488;-71
2022/07/20 06:52:32;;;;;;;4.68;2.13;;;;;;;23.95;37.22;95456.97;5123640;27;20027;-72
2022/07/20 06:54:58;;;;;;;6.65;2.20;;;;;;;24.14;37.14;95458.94;5105237;28;20031;-71
2022/07/20 06:57:23;;;;;;;5.80;2.30;;;;;;;24.16;36.69;95456.09;5114576;28;20463;-72
2022/07/20 06:59:49;;;;;;;5.50;2.08;;;;;;;24.18;36.37;95454.03;5108511;28;20036;-71
2022/07/20 07:02:14;;;;;;;6.30;2.45;;;;;;;24.27;37.14;95452.88;5117391;28;20020;-72
2022/07/20 07:04:40;;;;;;;4.07;1.92;;;;;;;24.37;36.39;95448.00;5092081;28;20130;-72
2022/07/20 07:07:05;;;;;;;5.47;2.58;;;;;;;24.53;36.86;95446.91;5108100;28;20039;-71
2022/07/20 07:09:31;;;;;;;4.40;2.17;;;;;;;24.64;36.41;95453.47;5129595;27;20039;-72
2022/07/20 07:11:56;;;;;;;5.13;2.35;;;;;;;24.66;36.58;95443.47;5128786;28;20027;-72
2022/07/20 07:14:22;;;;;;;6.50;2.15;;;;;;;24.75;36.49;95444.94;5115166;28;20019;-71
2022/07/20 07:16:47;;;;;;;4.32;2.42;;;;;;;24.80;36.99;95444.34;5110466;28;20042;-72
2022/07/20 07:19:13;;;;;;;7.07;2.95;;;;;;;24.60;36.86;95438.94;5109431;28;20041;-72
2022/07/20 07:21:38;;;;;;;6.70;2.33;;;;;;;24.90;37.10;95440.25;5128359;28;20031;-73
2022/07/20 07:24:04;;;;;;;4.20;2.30;;;;;;;25.00;36.46;95444.38;5129216;27;20015;-72
2022/07/20 07:26:29;;;;;;;3.97;2.40;;;;;;;25.16;36.07;95441.38;5132953;27;20284;-71
2022/07/20 07:28:55;;;;;;;6.50;2.28;;;;;;;25.21;35.91;95441.56;5133450;27;20477;-72
2022/07/20 07:31:20;;;;;;;7.43;2.47;;;;;;;25.16;35.87;95430.75;5098195;27;20548;-72
2022/07/20 07:33:46;;;;;;;6.05;2.30;;;;;;;25.38;35.91;95434.00;5132516;27;20027;-72
2022/07/20 07:36:11;;;;;;;8.23;2.50;;;;;;;25.59;36.24;95438.31;5124484;27;20035;-72
2022/07/20 07:38:37;;;;;;;4.97;2.30;;;;;;;25.64;34.99;95431.34;5093172;28;20024;-72
2022/07/20 07:41:02;;;;;;;5.20;2.20;;;;;;;25.81;34.98;95428.28;5096636;28;20034;-72
2022/07/20 07:43:28;;;;;;;4.68;2.50;;;;;;;25.96;34.61;95441.38;5129660;27;20099;-72
2022/07/20 07:45:53;;;;;;;6.97;2.58;;;;;;;25.99;33.90;95427.66;5133866;27;20019;-74
2022/07/20 07:48:19;;;;;;;5.18;2.70;;;;;;;26.08;34.32;95434.41;5131572;27;20035;-72
2022/07/20 07:50:44;;;;;;;7.95;2.80;;;;;;;26.15;34.46;95431.72;5116522;27;20124;-72
2022/07/20 07:53:10;;;;;;;11.82;3.30;;;;;;;26.34;33.74;95435.34;5118936;27;20027;-72
2022/07/20 07:55:38;;;;;;;9.07;2.83;;;;;;;26.44;33.57;95435.72;5115217;27;20035;-72
2022/07/20 07:58:05;;;;;;;13.48;3.40;;;;;;;26.56;34.07;95431.41;5111612;27;20054;-73
2022/07/20 08:00:30;;;;;;;9.98;3.45;;;;;;;26.70;33.28;95432.97;5129066;27;20464;-72
2022/07/20 08:02:56;;;;;;;8.80;3.15;;;;;;;26.78;33.53;95431.91;5131134;27;20114;-73
2022/07/20 08:05:22;;;;;;;6.78;3.50;;;;;;;26.89;32.33;95425.91;5106761;27;20028;-72
2022/07/20 08:07:47;;;;;;;9.27;2.95;;;;;;;26.94;31.85;95427.91;5121615;27;20515;-72
2022/07/20 08:10:13;;;;;;;10.30;3.30;;;;;;;27.03;32.18;95425.84;5117966;27;20035;-72
2022/07/20 08:12:38;;;;;;;6.10;2.50;;;;;;;27.08;29.68;95424.16;5121136;27;20028;-73
2022/07/20 08:15:05;;;;;;;11.88;3.22;;;;;;;27.14;29.09;95414.47;5115627;27;20553;-73
2022/07/20 08:17:31;;;;;;;6.18;3.00;;;;;;;27.14;29.67;95417.97;5106082;27;20433;-72
2022/07/20 08:19:56;;;;;;;13.52;3.22;;;;;;;27.11;30.28;95413.06;5130127;27;20108;-73
2022/07/20 08:22:22;;;;;;;6.53;3.00;;;;;;;27.21;29.90;95412.59;5125335;27;20509;-72
2022/07/20 08:24:47;;;;;;;5.57;2.97;;;;;;;27.32;30.47;95411.91;5094074;28;20092;-72
2022/07/20 08:27:13;;;;;;;7.50;3.10;;;;;;;27.38;29.75;95411.03;5110703;28;20027;-73
2022/07/20 08:29:38;;;;;;;7.80;2.88;;;;;;;27.49;29.84;95414.84;5115339;27;20062;-74
2022/07/20 08:32:04;;;;;;;11.85;3.75;;;;;;;27.29;29.07;95398.19;5126684;27;20549;-72
2022/07/20 08:34:29;;;;;;;6.75;3.40;;;;;;;27.40;29.03;95416.16;5129037;27;20030;-72
2022/07/20 08:36:55;;;;;;;9.07;3.17;;;;;;;27.47;30.21;95408.94;5111074;27;20408;-72
2022/07/20 08:39:20;;;;;;;12.68;3.08;;;;;;;27.55;29.31;95402.47;5076611;28;20067;-73
2022/07/20 08:41:46;;;;;;;11.25;3.03;;;;;;;27.57;29.79;95401.22;5111693;28;20027;-72
2022/07/20 08:44:11;;;;;;;4.82;3.10;;;;;;;27.74;29.91;95403.34;5111559;28;20027;-72
2022/07/20 08:46:37;;;;;;;6.00;2.97;;;;;;;27.67;29.65;95399.94;5110514;28;20031;-72
2022/07/20 08:49:02;;;;;;;5.15;2.40;;;;;;;27.85;28.83;95397.31;5109480;28;20027;-72
2022/07/20 08:51:28;;;;;;;6.63;2.47;;;;;;;27.93;28.90;95407.69;5110346;28;20035;-72
2022/07/20 08:53:54;;;;;;;3.28;1.77;;;;;;;27.93;26.64;95393.53;5112055;28;20466;-72
2022/07/20 08:56:19;;;;;;;5.13;1.77;;;;;;;28.03;26.07;95392.00;5094608;28;20023;-72
2022/07/20 08:58:45;;;;;;;5.30;1.90;;;;;;;28.01;27.04;95396.72;5092835;28;20054;-72
2022/07/20 09:01:17;;;;;;;6.28;1.70;;;;;;;27.93;26.13;95389.00;5110173;28;20031;-72
2022/07/20 09:03:44;;;;;;;4.25;1.85;;;;;;;28.08;27.68;95396.66;5111333;27;20020;-72
2022/07/20 09:06:10;;;;;;;8.57;2.10;;;;;;;28.23;25.95;95396.28;5093498;28;20489;-72
2022/07/20 09:08:36;;;;;;;3.83;1.55;;;;;;;28.23;25.08;95383.75;5093039;28;20034;-72
2022/07/20 09:11:01;;;;;;;2.83;1.60;;;;;;;28.22;25.09;95392.81;5093240;28;20409;-72
2022/07/20 09:13:28;;;;;;;3.75;1.73;;;;;;;28.11;25.10;95379.38;5077906;28;20028;-72
2022/07/20 09:15:54;;;;;;;8.75;1.90;;;;;;;27.95;26.28;95376.28;5095171;28;20079;-73
2022/07/20 09:18:21;;;;;;;4.65;1.60;;;;;;;28.03;26.11;95386.66;5077829;28;20025;-72
2022/07/20 09:20:50;;;;;;;3.75;1.90;;;;;;;28.09;25.36;95386.81;5078104;28;20036;-72
2022/07/20 09:23:23;;;;;;;4.45;1.90;;;;;;;28.13;26.93;95383.44;5111530;28;20024;-72
2022/07/20 09:25:50;;;;;;;4.70;1.80;;;;;;;28.05;26.04;95376.56;5111842;28;20039;-72
2022/07/20 09:28:15;;;;;;;4.55;1.77;;;;;;;28.21;25.95;95385.00;5111547;28;20031;-72
2022/07/20 09:30:54;;;;;;;4.10;1.88;;;;;;;28.27;25.51;95374.25;5111566;28;20118;-72
2022/07/20 09:33:30;;;;;;;4.33;1.77;;;;;;;28.13;25.14;95374.63;5111556;28;20420;-72
2022/07/20 09:35:56;;;;;;;6.07;2.47;;;;;;;28.04;25.93;95376.78;5095077;28;20043;-72
2022/07/20 09:38:37;;;;;;;3.65;1.70;;;;;;;28.15;26.45;95362.69;5094450;28;20055;-72
2022/07/20 09:41:04;;;;;;;3.92;1.90;;;;;;;28.10;26.25;95367.06;5095519;28;20040;-72
2022/07/20 09:43:35;;;;;;;2.60;1.70;;;;;;;28.26;25.61;95361.94;5128221;27;20023;-72
2022/07/20 09:46:18;;;;;;;3.30;1.50;;;;;;;28.33;26.34;95369.06;5112913;28;20052;-72
2022/07/20 09:48:49;;;;;;;5.85;1.75;;;;;;;28.40;26.51;95367.94;5110437;28;20024;-72
2022/07/20 09:51:22;;;;;;;3.08;1.65;;;;;;;28.40;25.42;95362.59;5077147;28;20122;-73
2022/07/20 09:53:48;;;;;;;5.40;2.03;;;;;;;28.26;24.85;95351.25;5112249;28;20502;-72
2022/07/20 09:56:17;;;;;;;5.28;1.88;;;;;;;28.23;25.92;95356.25;5094254;28;20036;-72
2022/07/20 09:58:44;;;;;;;4.95;1.60;;;;;;;28.26;25.97;95347.78;5076951;28;20039;-72
2022/07/20 10:01:09;;;;;;;3.08;1.88;;;;;;;28.24;26.23;95358.66;5112650;28;20032;-72
2022/07/20 10:03:35;;;;;;;3.85;1.85;;;;;;;28.27;25.14;95360.06;5110830;28;20460;-72
2022/07/20 10:06:00;;;;;;;2.63;1.60;;;;;;;28.19;25.58;95336.34;5093912;28;20053;-72
2022/07/20 10:08:26;;;;;;;3.10;1.60;;;;;;;28.36;25.09;95348.06;5093816;28;20102;-72
2022/07/20 10:10:51;;;;;;;2.58;1.60;;;;;;;28.47;25.39;95347.34;5110900;28;20145;-72
2022/07/20 10:13:17;;;;;;;4.65;2.03;;;;;;;28.41;27.02;95345.50;5110624;28;20077;-72
2022/07/20 10:15:49;;;;;;;2.70;1.63;;;;;;;28.53;25.22;95334.94;5093929;28;20088;-72
2022/07/20 10:18:14;;;;;;;3.08;1.60;;;;;;;28.65;25.12;95332.28;5110613;28;20028;-72
2022/07/20 10:20:40;;;;;;;3.78;1.90;;;;;;;28.47;24.74;95327.78;5093759;28;20459;-72
2022/07/20 10:23:14;;;;;;;3.33;1.60;;;;;;;28.34;26.38;95331.44;5110544;28;20027;-72
2022/07/20 10:25:44;;;;;;;7.70;1.80;;;;;;;28.44;25.47;95336.25;5112123;27;20036;-72
2022/07/20 10:28:26;;;;;;;2.45;1.70;;;;;;;28.43;26.61;95323.97;5093773;28;20032;-72
2022/07/20 10:30:56;;;;;;;3.22;1.70;;;;;;;28.50;26.47;95319.31;5110673;28;20043;-72
2022/07/20 10:33:21;;;;;;;2.95;1.60;;;;;;;28.64;26.24;95314.59;5093889;28;20114;-72
2022/07/20 10:35:48;;;;;;;4.22;1.70;;;;;;;28.46;25.87;95307.47;5110678;28;20548;-72
2022/07/20 10:38:18;;;;;;;3.13;1.75;;;;;;;28.36;26.67;95302.66;5076513;28;20034;-72
2022/07/20 10:44:20;;;;;;;3.55;1.67;;;;;;;28.61;25.19;95296.34;5110401;28;20438;-72
2022/07/20 10:46:45;;;;;;;4.70;1.75;;;;;;;28.68;24.32;95300.56;5103501;28;20056;-72
2022/07/20 10:49:11;;;;;;;3.05;1.88;;;;;;;28.70;25.25;95290.47;5093086;28;20038;-72
2022/07/20 10:51:36;;;;;;;4.22;1.63;;;;;;;28.81;26.05;95298.75;5093228;28;20035;-72
2022/07/20 10:54:36;;;;;;;2.95;1.70;;;;;;;28.96;25.14;95286.56;5110081;28;20028;-72
2022/07/20 10:57:02;;;;;;;2.65;1.92;;;;;;;29.04;25.75;95288.13;5111382;28;20035;-72
2022/07/20 10:59:27;;;;;;;4.63;2.05;;;;;;;29.08;24.74;95280.44;5093074;28;20520;-72
2022/07/20 11:01:53;;;;;;;4.47;1.70;;;;;;;29.08;24.06;95283.94;5126817;27;20019;-72
2022/07/20 11:04:20;;;;;;;3.25;1.80;;;;;;;28.92;24.92;95280.06;5076129;28;20035;-72
2022/07/20 11:06:45;;;;;;;2.65;1.80;;;;;;;28.71;25.33;95277.91;5093110;28;20023;-73
2022/07/20 11:09:11;;;;;;;2.63;1.55;;;;;;;28.56;25.06;95275.69;5109924;28;20038;-72
2022/07/20 11:11:37;;;;;;;2.83;1.67;;;;;;;28.65;25.75;95278.84;5109975;28;20031;-72
2022/07/20 11:14:05;;;;;;;2.30;1.70;;;;;;;28.51;24.74;95273.69;5111093;28;20047;-72
2022/07/20 11:16:31;;;;;;;3.40;2.00;;;;;;;28.28;26.06;95269.06;5093295;28;20054;-72
2022/07/20 11:18:57;;;;;;;8.40;1.80;;;;;;;28.40;24.94;95262.94;5109714;28;20108;-72
2022/07/20 11:21:30;;;;;;;3.15;1.80;;;;;;;28.28;25.52;95253.03;5109870;28;20053;-73
2022/07/20 11:23:55;;;;;;;3.40;2.13;;;;;;;28.56;25.71;95256.97;5076069;28;20031;-72
2022/07/20 11:26:21;;;;;;;3.38;1.95;;;;;;;28.68;25.17;95259.69;5109841;28;20031;-72
2022/07/20 11:28:52;;;;;;;7.30;1.80;;;;;;;28.79;25.43;95260.75;5109788;28;20028;-72
2022/07/20 11:31:20;;;;;;;2.80;1.73;;;;;;;28.86;25.98;95242.72;5092858;28;20039;-72
2022/07/20 11:33:48;;;;;;;3.83;1.70;;;;;;;29.02;25.02;95236.69;5093119;28;20020;-72
2022/07/20 11:36:22;;;;;;;2.60;1.67;;;;;;;28.85;24.86;95244.59;5093329;28;20047;-72
2022/07/20 11:38:53;;;;;;;6.18;1.90;;;;;;;28.90;25.29;95250.06;5109591;28;20507;-72